Stations météo

réclame
Mon MeteoGroup
Väderöarna, Suède (2501): Température de l'air & dewpoint: 12.09.2019 11:00:00 - 18.09.2019 11:00:00 (CEST)Väderöarna, Suède (2501): Vitesse du vent & gusts: 12.09.2019 11:00:00 - 18.09.2019 11:00:00 (CEST)Väderöarna, Suède (2501): Direction du vent: 12.09.2019 11:00:00 - 18.09.2019 11:00:00 (CEST)Väderöarna, Suède (2501): reduced air pressure: 12.09.2019 11:00:00 - 18.09.2019 11:00:00 (CEST)
Date & Time tt [°C] td [°C] ff [km/h] ff [knt] fx [km/h] fx [knt] dd ppp [hPa]
18.09.2019 11:00:00 - - - - - - - -
18.09.2019 10:00:00 11,9 1,5 26 14 41 22 N 1015,9
18.09.2019 09:00:00 11,7 3,7 29 16 43 23 NNW 1015,3
18.09.2019 08:00:00 11,7 3,5 34 18 49 26 NNW 1014,6
18.09.2019 07:00:00 11,9 3,9 36 19 53 29 NNW 1013,9
18.09.2019 06:00:00 12,0 2,7 39 21 49 26 NNW 1013,4
18.09.2019 05:00:00 12,2 2,4 35 19 47 25 NNW 1013,0
18.09.2019 04:00:00 12,4 3,1 38 21 51 27 NNW 1012,6
18.09.2019 03:00:00 12,5 3,7 39 21 51 28 NNW 1012,2
18.09.2019 02:00:00 12,7 3,4 39 21 51 28 NNW 1012,0
18.09.2019 01:00:00 12,6 3,8 35 19 44 24 NNW 1011,6
18.09.2019 00:00:00 12,8 4,5 35 19 55 30 NNW 1010,9
17.09.2019 23:00:00 13,1 3,7 40 22 55 30 NNW 1010,2
17.09.2019 22:00:00 13,6 2,2 46 25 55 30 NW 1009,5
17.09.2019 21:00:00 14,0 0,6 31 17 42 23 NW 1008,8
17.09.2019 20:00:00 13,8 -0,6 32 18 51 28 NNW 1008,0
17.09.2019 19:00:00 13,6 0,9 32 18 53 29 N 1007,3
17.09.2019 18:00:00 13,2 0,6 25 14 51 28 N 1006,6
17.09.2019 17:00:00 12,9 0,0 35 19 59 32 N 1005,5
17.09.2019 16:00:00 12,7 1,7 44 24 67 36 NNW 1004,5
17.09.2019 15:00:00 12,3 3,8 48 26 66 35 NNW 1003,7
17.09.2019 14:00:00 11,9 2,4 40 22 59 32 N 1003,1
17.09.2019 13:00:00 11,3 2,8 37 20 50 27 NNW 1002,5
17.09.2019 12:00:00 10,9 1,7 37 20 49 27 NNW 1002,0
17.09.2019 11:00:00 10,4 1,5 34 19 45 25 NNW 1001,6
17.09.2019 10:00:00 10,5 1,1 32 17 45 25 NNW 1001,3
17.09.2019 09:00:00 10,5 0,8 36 19 53 29 NW 1001,1
17.09.2019 08:00:00 10,5 1,8 44 24 61 33 WNW 1000,8
17.09.2019 07:00:00 10,7 1,2 48 26 64 35 WNW 1000,8
17.09.2019 06:00:00 11,0 3,3 50 27 62 34 WNW 1001,0
17.09.2019 05:00:00 11,4 3,9 45 25 60 33 WNW 1001,2
17.09.2019 04:00:00 11,8 3,8 46 25 57 31 WNW 1001,7
17.09.2019 03:00:00 12,1 5,9 47 25 60 33 W 1002,1
17.09.2019 02:00:00 12,5 5,9 50 27 64 34 W 1002,7
17.09.2019 01:00:00 13,0 6,8 48 26 60 32 W 1003,6
17.09.2019 00:00:00 13,1 6,4 48 26 59 32 W 1004,1
16.09.2019 23:00:00 13,2 6,1 49 26 58 32 W 1004,6
16.09.2019 22:00:00 13,4 6,5 49 27 61 33 W 1005,3
16.09.2019 21:00:00 13,8 6,4 50 27 61 33 W 1005,6
16.09.2019 20:00:00 14,1 5,5 50 27 61 33 W 1005,9
16.09.2019 19:00:00 14,9 5,4 48 26 58 31 W 1006,1
16.09.2019 18:00:00 15,2 4,3 45 25 54 29 W 1006,6
16.09.2019 17:00:00 15,4 3,5 44 24 59 32 W 1006,7
16.09.2019 16:00:00 15,4 4,4 45 24 58 31 W 1007,0
16.09.2019 15:00:00 14,7 4,1 44 24 56 31 W 1007,1
16.09.2019 14:00:00 14,6 2,5 39 21 52 28 WNW 1007,3
16.09.2019 13:00:00 13,7 4,0 43 23 58 31 W 1007,3
16.09.2019 12:00:00 13,2 3,6 46 25 59 32 W 1007,3
16.09.2019 11:00:00 13,1 3,2 48 26 68 37 W 1007,1
16.09.2019 10:00:00 12,9 3,5 54 29 66 36 W 1006,7
16.09.2019 09:00:00 12,7 2,0 53 29 65 35 W 1006,8
16.09.2019 08:00:00 12,7 3,9 47 26 56 31 W 1006,5
16.09.2019 07:00:00 13,0 2,2 43 23 62 33 WNW 1006,3
16.09.2019 06:00:00 13,3 2,5 46 25 63 34 W 1006,2
16.09.2019 05:00:00 13,5 1,8 52 28 69 38 WNW 1005,9
16.09.2019 04:00:00 13,8 2,7 50 27 64 35 WNW 1005,5
16.09.2019 03:00:00 14,2 4,5 44 24 64 35 WNW 1005,3
16.09.2019 02:00:00 14,3 3,7 55 30 67 36 W 1004,3
16.09.2019 01:00:00 14,5 5,3 50 27 71 39 W 1004,2
16.09.2019 00:00:00 14,7 7,3 51 28 72 39 W 1003,1
15.09.2019 23:00:00 14,6 7,2 59 32 74 40 W 1001,8
15.09.2019 22:00:00 14,9 6,7 61 33 78 42 W 1001,0
15.09.2019 21:00:00 14,9 7,7 62 33 78 42 W 1000,8
15.09.2019 20:00:00 14,9 8,4 56 30 85 46 W 1000,4
15.09.2019 19:00:00 15,2 8,2 64 35 86 46 W 1000,0
15.09.2019 18:00:00 15,1 8,6 60 33 82 45 W 999,9
15.09.2019 17:00:00 15,2 8,4 64 34 86 47 W 1000,4
15.09.2019 16:00:00 14,7 8,0 59 32 75 40 WSW 1000,8
15.09.2019 15:00:00 14,7 7,3 55 30 81 44 WSW 1001,8
15.09.2019 14:00:00 14,7 7,3 56 30 76 41 W 1001,9
15.09.2019 13:00:00 14,4 7,2 55 30 84 46 W 1002,1
15.09.2019 12:00:00 14,3 4,8 66 35 86 47 W 1000,8
15.09.2019 11:00:00 13,8 7,3 69 37 87 47 W 1001,0
15.09.2019 10:00:00 14,0 7,7 63 34 80 43 W 1001,5
15.09.2019 09:00:00 13,9 8,5 68 37 87 47 W 1001,3
15.09.2019 08:00:00 14,2 8,2 68 37 85 46 W 1001,7
15.09.2019 07:00:00 14,7 9,7 58 31 75 41 W 1001,4
15.09.2019 06:00:00 14,9 12,9 54 29 78 42 WSW 1002,2
15.09.2019 05:00:00 14,7 13,4 63 34 85 46 WSW 1003,2
15.09.2019 04:00:00 14,5 13,4 67 36 89 48 WSW 1004,5
15.09.2019 03:00:00 14,5 13,2 71 38 90 48 WSW 1006,0
15.09.2019 02:00:00 14,8 12,5 68 37 86 47 SW 1007,6
15.09.2019 01:00:00 13,9 12,9 69 38 87 47 SW 1009,9
15.09.2019 00:00:00 14,0 12,0 70 38 94 51 SW 1011,7
14.09.2019 23:00:00 15,0 10,4 68 37 87 47 SW 1013,4
14.09.2019 22:00:00 14,7 11,1 64 34 85 46 SW 1014,9
14.09.2019 21:00:00 14,6 9,8 62 34 76 41 SW 1016,8
14.09.2019 20:00:00 14,4 10,6 58 31 71 38 SW 1018,3
14.09.2019 19:00:00 14,6 10,2 56 30 70 38 WSW 1019,2
14.09.2019 18:00:00 14,8 9,6 55 30 67 36 WSW 1020,0
14.09.2019 17:00:00 15,1 10,5 49 26 70 38 WSW 1021,4
14.09.2019 16:00:00 15,1 9,0 53 29 66 35 WSW 1022,6
14.09.2019 15:00:00 15,0 10,0 52 28 64 34 WSW 1023,5
14.09.2019 14:00:00 14,9 9,7 53 28 63 34 WSW 1024,2
14.09.2019 13:00:00 14,8 9,8 45 24 58 31 W 1024,7
14.09.2019 12:00:00 15,0 9,4 45 24 58 31 W 1025,0
14.09.2019 11:00:00 14,8 6,4 36 20 48 26 W 1025,2
14.09.2019 10:00:00 14,2 7,7 40 22 55 30 W 1025,5
14.09.2019 09:00:00 14,1 7,2 42 23 54 29 W 1025,2
14.09.2019 08:00:00 13,9 5,5 49 27 58 31 W 1024,5
14.09.2019 07:00:00 13,7 6,8 46 25 56 31 W 1024,6
14.09.2019 06:00:00 13,9 6,3 43 23 53 28 W 1024,6
14.09.2019 05:00:00 13,7 5,8 42 23 57 31 W 1024,6
14.09.2019 04:00:00 13,7 6,8 45 25 56 31 W 1024,7
14.09.2019 03:00:00 13,6 6,2 45 24 62 34 W 1024,9
14.09.2019 02:00:00 13,8 6,4 50 27 59 32 W 1024,2
14.09.2019 01:00:00 13,9 6,3 46 25 67 36 W 1024,4
14.09.2019 00:00:00 13,9 6,7 57 31 73 40 W 1023,4
13.09.2019 23:00:00 14,4 6,0 62 34 72 39 W 1022,9
13.09.2019 22:00:00 14,5 6,8 51 28 72 39 W 1023,0
13.09.2019 21:00:00 14,7 5,8 63 34 73 39 W 1022,0
13.09.2019 20:00:00 15,5 5,4 59 32 71 38 W 1021,7
13.09.2019 19:00:00 16,1 6,5 51 28 64 34 W 1021,4
13.09.2019 18:00:00 16,0 5,9 50 27 63 34 W 1021,4
13.09.2019 17:00:00 16,3 5,9 49 26 66 35 W 1021,2
13.09.2019 16:00:00 16,3 7,0 50 27 66 35 W 1020,9
13.09.2019 15:00:00 16,2 6,9 43 23 57 31 W 1021,4
13.09.2019 14:00:00 15,4 7,4 45 24 55 30 W 1021,0
13.09.2019 13:00:00 15,1 5,9 45 24 54 29 W 1020,2
13.09.2019 12:00:00 14,9 7,0 44 24 53 29 WNW 1019,7
13.09.2019 11:00:00 14,7 6,0 44 24 56 30 W 1018,9
13.09.2019 10:00:00 14,5 6,3 46 25 59 32 WNW 1017,7
13.09.2019 09:00:00 14,5 6,3 47 26 61 33 WNW 1016,8
13.09.2019 08:00:00 14,5 7,3 49 27 62 33 WNW 1015,8
13.09.2019 07:00:00 14,5 7,1 48 26 61 33 W 1014,9
13.09.2019 06:00:00 14,4 7,9 51 28 62 33 W 1013,7
13.09.2019 05:00:00 14,5 9,5 51 28 61 33 W 1013,6
13.09.2019 04:00:00 14,6 9,4 49 27 60 32 W 1013,6
13.09.2019 03:00:00 14,8 10,0 49 26 62 33 W 1013,7
13.09.2019 02:00:00 14,9 10,7 47 26 58 31 W 1013,8
13.09.2019 01:00:00 14,9 10,9 46 25 56 31 W 1013,9
13.09.2019 00:00:00 15,1 11,3 45 25 57 31 WSW 1014,4
12.09.2019 23:00:00 15,0 11,8 43 23 61 33 WSW 1015,0
12.09.2019 22:00:00 14,9 11,9 51 27 65 35 WSW 1015,1
12.09.2019 21:00:00 15,2 12,3 53 28 68 37 WSW 1015,4
12.09.2019 20:00:00 15,5 12,3 57 31 73 39 WSW 1015,3
12.09.2019 19:00:00 15,5 12,3 54 29 66 36 WSW 1015,3
12.09.2019 18:00:00 15,6 12,5 54 29 69 37 WSW 1015,7
12.09.2019 17:00:00 15,8 12,5 50 27 65 35 WSW 1015,9
12.09.2019 16:00:00 16,1 11,1 50 27 65 35 WSW 1015,4
12.09.2019 15:00:00 15,9 12,6 53 29 63 34 WSW 1015,7
12.09.2019 14:00:00 15,9 12,5 52 28 63 34 WSW 1016,1
12.09.2019 13:00:00 15,7 12,1 52 28 66 35 WSW 1015,8
12.09.2019 12:00:00 15,8 12,7 55 30 66 36 WSW 1015,3
12.09.2019 11:00:00 16,0 12,0 45 25 70 38 WSW 1015,0

tt = Température de l'air
td = dewpoint
ff = Vitesse du vent
fx = gusts
dd = Direction du vent
ppp = reduced air pressure

stations d'obs. à proximité